sensor_id;sensor_type;location;lat;lon;timestamp;pressure;altitude;pressure_sealevel;temperature;humidity
55277;BME280;41136;51.478;-2.610;2023-05-24T00:00:31;101840.60;;;14.56;100.00
55277;BME280;41136;51.478;-2.610;2023-05-24T00:05:43;101837.34;;;15.05;98.00
55277;BME280;41136;51.478;-2.610;2023-05-24T00:08:08;101842.40;;;15.11;96.81
55277;BME280;41136;51.478;-2.610;2023-05-24T00:10:33;101846.76;;;14.59;99.46
55277;BME280;41136;51.478;-2.610;2023-05-24T00:12:59;101849.33;;;15.09;97.61
55277;BME280;41136;51.478;-2.610;2023-05-24T00:15:24;101848.11;;;15.57;98.32
55277;BME280;41136;51.478;-2.610;2023-05-24T00:17:50;101848.85;;;15.12;100.00
55277;BME280;41136;51.478;-2.610;2023-05-24T00:20:16;101850.83;;;14.55;100.00
55277;BME280;41136;51.478;-2.610;2023-05-24T00:22:41;101853.04;;;14.98;100.00
55277;BME280;41136;51.478;-2.610;2023-05-24T00:25:07;101853.92;;;13.93;100.00
55277;BME280;41136;51.478;-2.610;2023-05-24T00:27:32;101858.55;;;12.96;100.00
55277;BME280;41136;51.478;-2.610;2023-05-24T00:29:57;101856.75;;;14.54;100.00
55277;BME280;41136;51.478;-2.610;2023-05-24T00:32:23;101857.58;;;13.77;100.00
55277;BME280;41136;51.478;-2.610;2023-05-24T00:34:48;101857.62;;;13.58;100.00
55277;BME280;41136;51.478;-2.610;2023-05-24T00:37:13;101854.16;;;14.22;100.00
55277;BME280;41136;51.478;-2.610;2023-05-24T00:39:39;101852.69;;;15.44;98.57
55277;BME280;41136;51.478;-2.610;2023-05-24T00:42:04;101845.68;;;15.73;93.35
55277;BME280;41136;51.478;-2.610;2023-05-24T00:44:30;101842.07;;;16.05;90.92
55277;BME280;41136;51.478;-2.610;2023-05-24T00:46:55;101845.10;;;16.45;89.05
55277;BME280;41136;51.478;-2.610;2023-05-24T00:49:20;101848.38;;;16.68;85.78
55277;BME280;41136;51.478;-2.610;2023-05-24T00:51:46;101846.58;;;16.53;84.88
55277;BME280;41136;51.478;-2.610;2023-05-24T00:54:11;101850.67;;;16.33;84.18
55277;BME280;41136;51.478;-2.610;2023-05-24T00:56:36;101853.67;;;16.64;83.34
55277;BME280;41136;51.478;-2.610;2023-05-24T00:59:01;101855.92;;;16.57;81.94
55277;BME280;41136;51.478;-2.610;2023-05-24T01:01:27;101852.08;;;16.61;81.69
55277;BME280;41136;51.478;-2.610;2023-05-24T01:03:52;101850.86;;;16.45;80.64
55277;BME280;41136;51.478;-2.610;2023-05-24T01:06:18;101849.93;;;16.64;78.62
55277;BME280;41136;51.478;-2.610;2023-05-24T01:08:53;101845.79;;;16.40;79.92
55277;BME280;41136;51.478;-2.610;2023-05-24T01:11:14;101846.24;;;16.76;78.18
55277;BME280;41136;51.478;-2.610;2023-05-24T01:13:39;101841.06;;;17.03;76.71
55277;BME280;41136;51.478;-2.610;2023-05-24T01:16:00;101838.29;;;16.66;74.92
55277;BME280;41136;51.478;-2.610;2023-05-24T01:18:25;101833.50;;;16.61;74.96
55277;BME280;41136;51.478;-2.610;2023-05-24T01:20:53;101828.61;;;17.00;74.71
55277;BME280;41136;51.478;-2.610;2023-05-24T01:25:48;101825.37;;;16.04;74.97
55277;BME280;41136;51.478;-2.610;2023-05-24T01:28:05;101824.74;;;15.99;74.04
55277;BME280;41136;51.478;-2.610;2023-05-24T01:30:30;101825.19;;;15.84;75.18
55277;BME280;41136;51.478;-2.610;2023-05-24T01:32:54;101831.95;;;16.27;73.78
55277;BME280;41136;51.478;-2.610;2023-05-24T01:35:20;101830.17;;;15.82;73.58
55277;BME280;41136;51.478;-2.610;2023-05-24T01:37:45;101832.30;;;15.73;72.71
55277;BME280;41136;51.478;-2.610;2023-05-24T01:40:11;101834.60;;;15.10;74.66
55277;BME280;41136;51.478;-2.610;2023-05-24T01:42:41;101836.12;;;16.40;72.15
55277;BME280;41136;51.478;-2.610;2023-05-24T01:45:06;101832.08;;;15.40;72.30
55277;BME280;41136;51.478;-2.610;2023-05-24T01:47:33;101835.96;;;16.40;70.53
55277;BME280;41136;51.478;-2.610;2023-05-24T01:49:55;101842.32;;;16.68;69.49
55277;BME280;41136;51.478;-2.610;2023-05-24T01:52:19;101842.12;;;16.71;69.33
55277;BME280;41136;51.478;-2.610;2023-05-24T01:54:47;101841.43;;;16.52;68.85
55277;BME280;41136;51.478;-2.610;2023-05-24T01:57:09;101840.87;;;16.49;69.26
55277;BME280;41136;51.478;-2.610;2023-05-24T01:59:34;101830.61;;;16.03;69.27
55277;BME280;41136;51.478;-2.610;2023-05-24T02:01:58;101829.63;;;16.37;67.94
55277;BME280;41136;51.478;-2.610;2023-05-24T02:04:23;101830.07;;;16.50;68.07
55277;BME280;41136;51.478;-2.610;2023-05-24T02:06:48;101829.83;;;16.58;67.60
55277;BME280;41136;51.478;-2.610;2023-05-24T02:09:13;101828.59;;;16.61;67.20
55277;BME280;41136;51.478;-2.610;2023-05-24T02:11:38;101828.62;;;16.56;67.12
55277;BME280;41136;51.478;-2.610;2023-05-24T02:14:04;101824.61;;;15.83;66.84
55277;BME280;41136;51.478;-2.610;2023-05-24T02:16:29;101825.01;;;15.94;67.47
55277;BME280;41136;51.478;-2.610;2023-05-24T02:18:54;101824.49;;;14.22;71.09
55277;BME280;41136;51.478;-2.610;2023-05-24T02:21:20;101817.91;;;14.45;71.40
55277;BME280;41136;51.478;-2.610;2023-05-24T02:23:45;101816.01;;;13.94;71.81
55277;BME280;41136;51.478;-2.610;2023-05-24T02:26:10;101819.27;;;14.78;70.77
55277;BME280;41136;51.478;-2.610;2023-05-24T02:28:36;101819.85;;;15.60;69.46
55277;BME280;41136;51.478;-2.610;2023-05-24T02:31:01;101814.93;;;15.80;68.39
55277;BME280;41136;51.478;-2.610;2023-05-24T02:33:26;101813.44;;;16.02;67.64
55277;BME280;41136;51.478;-2.610;2023-05-24T02:35:52;101815.36;;;16.40;66.99
55277;BME280;41136;51.478;-2.610;2023-05-24T02:38:17;101817.54;;;15.98;67.42
55277;BME280;41136;51.478;-2.610;2023-05-24T02:40:42;101812.89;;;16.12;66.71
55277;BME280;41136;51.478;-2.610;2023-05-24T02:43:08;101815.45;;;16.13;66.45
55277;BME280;41136;51.478;-2.610;2023-05-24T02:45:33;101822.07;;;16.35;65.79
55277;BME280;41136;51.478;-2.610;2023-05-24T02:47:58;101819.59;;;16.15;65.99
55277;BME280;41136;51.478;-2.610;2023-05-24T02:50:23;101820.65;;;16.32;65.39
55277;BME280;41136;51.478;-2.610;2023-05-24T02:52:49;101823.72;;;16.39;64.63
55277;BME280;41136;51.478;-2.610;2023-05-24T02:55:14;101822.82;;;16.15;64.92
55277;BME280;41136;51.478;-2.610;2023-05-24T02:57:40;101824.34;;;16.20;64.81
55277;BME280;41136;51.478;-2.610;2023-05-24T03:00:06;101826.30;;;16.06;64.67
55277;BME280;41136;51.478;-2.610;2023-05-24T03:02:30;101830.50;;;15.96;64.90
55277;BME280;41136;51.478;-2.610;2023-05-24T03:04:55;101829.79;;;15.79;64.62
55277;BME280;41136;51.478;-2.610;2023-05-24T03:07:21;101829.22;;;15.88;64.87
55277;BME280;41136;51.478;-2.610;2023-05-24T03:09:46;101827.65;;;16.10;64.70
55277;BME280;41136;51.478;-2.610;2023-05-24T03:12:12;101827.67;;;15.47;66.09
55277;BME280;41136;51.478;-2.610;2023-05-24T03:14:37;101828.23;;;15.41;66.71
55277;BME280;41136;51.478;-2.610;2023-05-24T03:17:03;101827.21;;;15.24;66.60
55277;BME280;41136;51.478;-2.610;2023-05-24T03:19:27;101830.82;;;15.88;65.70
55277;BME280;41136;51.478;-2.610;2023-05-24T03:21:53;101833.35;;;15.99;65.28
55277;BME280;41136;51.478;-2.610;2023-05-24T03:24:18;101833.75;;;15.65;65.29
55277;BME280;41136;51.478;-2.610;2023-05-24T03:26:43;101832.82;;;15.46;65.69
55277;BME280;41136;51.478;-2.610;2023-05-24T03:29:09;101832.40;;;16.06;65.23
55277;BME280;41136;51.478;-2.610;2023-05-24T03:31:34;101835.50;;;15.81;65.57
55277;BME280;41136;51.478;-2.610;2023-05-24T03:33:59;101840.23;;;15.90;65.64
55277;BME280;41136;51.478;-2.610;2023-05-24T03:36:24;101843.91;;;15.98;65.94
55277;BME280;41136;51.478;-2.610;2023-05-24T03:38:50;101843.88;;;16.01;65.84
55277;BME280;41136;51.478;-2.610;2023-05-24T03:41:15;101842.28;;;15.84;66.06
55277;BME280;41136;51.478;-2.610;2023-05-24T03:43:41;101841.22;;;15.63;66.05
55277;BME280;41136;51.478;-2.610;2023-05-24T03:46:06;101840.78;;;14.96;67.29
55277;BME280;41136;51.478;-2.610;2023-05-24T03:48:31;101842.83;;;14.38;69.82
55277;BME280;41136;51.478;-2.610;2023-05-24T03:50:57;101839.79;;;15.59;67.67
55277;BME280;41136;51.478;-2.610;2023-05-24T03:53:22;101839.16;;;16.15;66.61
55277;BME280;41136;51.478;-2.610;2023-05-24T03:55:52;101836.31;;;15.56;66.64
55277;BME280;41136;51.478;-2.610;2023-05-24T03:58:12;101837.38;;;15.95;66.29
55277;BME280;41136;51.478;-2.610;2023-05-24T04:00:38;101839.65;;;15.76;65.92
55277;BME280;41136;51.478;-2.610;2023-05-24T04:03:03;101839.46;;;15.34;66.39
55277;BME280;41136;51.478;-2.610;2023-05-24T04:07:37;101841.83;;;15.32;64.60
55277;BME280;41136;51.478;-2.610;2023-05-24T04:10:04;101842.78;;;15.83;63.75
55277;BME280;41136;51.478;-2.610;2023-05-24T04:12:28;101844.36;;;15.77;64.39
55277;BME280;41136;51.478;-2.610;2023-05-24T04:14:53;101844.47;;;15.65;63.21
55277;BME280;41136;51.478;-2.610;2023-05-24T04:17:18;101841.72;;;16.66;62.76
55277;BME280;41136;51.478;-2.610;2023-05-24T04:19:44;101838.69;;;16.45;63.09
55277;BME280;41136;51.478;-2.610;2023-05-24T04:22:09;101833.27;;;16.26;63.35
55277;BME280;41136;51.478;-2.610;2023-05-24T04:24:34;101836.14;;;15.96;63.83
55277;BME280;41136;51.478;-2.610;2023-05-24T04:27:00;101834.16;;;15.98;63.87
55277;BME280;41136;51.478;-2.610;2023-05-24T04:29:25;101836.81;;;15.99;64.77
55277;BME280;41136;51.478;-2.610;2023-05-24T04:31:50;101835.93;;;15.66;65.02
55277;BME280;41136;51.478;-2.610;2023-05-24T04:34:15;101841.33;;;15.08;66.17
55277;BME280;41136;51.478;-2.610;2023-05-24T04:36:41;101840.87;;;15.22;66.63
55277;BME280;41136;51.478;-2.610;2023-05-24T04:39:06;101839.49;;;15.86;66.39
55277;BME280;41136;51.478;-2.610;2023-05-24T04:41:31;101838.61;;;15.63;66.40
55277;BME280;41136;51.478;-2.610;2023-05-24T04:43:57;101837.62;;;16.11;66.34
55277;BME280;41136;51.478;-2.610;2023-05-24T04:46:22;101835.58;;;15.67;66.49
55277;BME280;41136;51.478;-2.610;2023-05-24T04:48:47;101831.54;;;15.64;65.96
55277;BME280;41136;51.478;-2.610;2023-05-24T04:51:13;101834.84;;;15.56;65.81
55277;BME280;41136;51.478;-2.610;2023-05-24T04:53:38;101836.29;;;15.50;65.94
55277;BME280;41136;51.478;-2.610;2023-05-24T04:56:04;101833.67;;;16.03;66.12
55277;BME280;41136;51.478;-2.610;2023-05-24T04:58:29;101834.43;;;16.07;66.29
55277;BME280;41136;51.478;-2.610;2023-05-24T05:00:55;101833.61;;;15.84;66.48
55277;BME280;41136;51.478;-2.610;2023-05-24T05:03:20;101830.70;;;15.63;66.58
55277;BME280;41136;51.478;-2.610;2023-05-24T05:05:45;101825.89;;;15.81;66.58
55277;BME280;41136;51.478;-2.610;2023-05-24T05:08:10;101827.93;;;16.00;67.15
55277;BME280;41136;51.478;-2.610;2023-05-24T05:10:36;101821.71;;;15.67;66.63
55277;BME280;41136;51.478;-2.610;2023-05-24T05:13:01;101824.32;;;15.43;67.05
55277;BME280;41136;51.478;-2.610;2023-05-24T05:15:26;101823.69;;;15.65;67.28
55277;BME280;41136;51.478;-2.610;2023-05-24T05:17:52;101821.04;;;15.44;67.55
55277;BME280;41136;51.478;-2.610;2023-05-24T05:20:22;101819.80;;;15.36;67.68
55277;BME280;41136;51.478;-2.610;2023-05-24T05:22:45;101817.60;;;15.36;68.13
55277;BME280;41136;51.478;-2.610;2023-05-24T05:25:08;101813.98;;;15.73;67.93
55277;BME280;41136;51.478;-2.610;2023-05-24T05:27:33;101816.36;;;15.38;68.43
55277;BME280;41136;51.478;-2.610;2023-05-24T05:29:58;101818.24;;;15.46;67.96
55277;BME280;41136;51.478;-2.610;2023-05-24T05:32:24;101821.44;;;16.04;68.01
55277;BME280;41136;51.478;-2.610;2023-05-24T05:34:49;101822.50;;;15.81;67.25
55277;BME280;41136;51.478;-2.610;2023-05-24T05:37:15;101824.30;;;16.08;65.49
55277;BME280;41136;51.478;-2.610;2023-05-24T05:39:40;101828.77;;;16.46;64.84
55277;BME280;41136;51.478;-2.610;2023-05-24T05:42:06;101834.18;;;15.99;65.66
55277;BME280;41136;51.478;-2.610;2023-05-24T05:44:30;101835.57;;;16.38;65.27
55277;BME280;41136;51.478;-2.610;2023-05-24T05:46:56;101839.99;;;16.37;65.18
55277;BME280;41136;51.478;-2.610;2023-05-24T05:49:21;101838.62;;;16.05;66.30
55277;BME280;41136;51.478;-2.610;2023-05-24T05:51:47;101841.11;;;16.48;65.61
55277;BME280;41136;51.478;-2.610;2023-05-24T05:54:12;101841.22;;;16.26;65.68
55277;BME280;41136;51.478;-2.610;2023-05-24T05:56:37;101834.92;;;16.15;65.88
55277;BME280;41136;51.478;-2.610;2023-05-24T05:59:02;101834.22;;;14.09;68.41
55277;BME280;41136;51.478;-2.610;2023-05-24T06:01:28;101834.39;;;15.73;67.11
55277;BME280;41136;51.478;-2.610;2023-05-24T06:03:53;101834.23;;;15.41;70.64
55277;BME280;41136;51.478;-2.610;2023-05-24T06:06:18;101832.51;;;14.39;69.12
55277;BME280;41136;51.478;-2.610;2023-05-24T06:08:44;101834.89;;;14.68;68.98
55277;BME280;41136;51.478;-2.610;2023-05-24T06:11:09;101838.97;;;13.67;71.77
55277;BME280;41136;51.478;-2.610;2023-05-24T06:13:34;101841.84;;;13.82;74.13
55277;BME280;41136;51.478;-2.610;2023-05-24T06:16:00;101840.67;;;13.36;75.76
55277;BME280;41136;51.478;-2.610;2023-05-24T06:18:26;101840.09;;;13.19;79.33
55277;BME280;41136;51.478;-2.610;2023-05-24T06:20:51;101840.02;;;13.26;79.22
55277;BME280;41136;51.478;-2.610;2023-05-24T06:23:16;101844.69;;;12.94;81.03
55277;BME280;41136;51.478;-2.610;2023-05-24T06:25:42;101846.20;;;13.37;80.96
55277;BME280;41136;51.478;-2.610;2023-05-24T06:28:07;101845.69;;;14.33;81.94
55277;BME280;41136;51.478;-2.610;2023-05-24T06:30:32;101850.04;;;13.36;84.11
55277;BME280;41136;51.478;-2.610;2023-05-24T06:32:57;101856.06;;;13.41;85.69
55277;BME280;41136;51.478;-2.610;2023-05-24T06:35:22;101857.21;;;13.13;87.28
55277;BME280;41136;51.478;-2.610;2023-05-24T06:37:48;101859.67;;;13.01;87.15
55277;BME280;41136;51.478;-2.610;2023-05-24T06:40:13;101861.66;;;12.30;89.20
55277;BME280;41136;51.478;-2.610;2023-05-24T06:42:39;101860.25;;;13.51;87.57
55277;BME280;41136;51.478;-2.610;2023-05-24T06:45:05;101863.33;;;13.09;88.57
55277;BME280;41136;51.478;-2.610;2023-05-24T06:47:30;101858.64;;;13.08;90.21
55277;BME280;41136;51.478;-2.610;2023-05-24T06:49:56;101861.62;;;12.75;91.42
55277;BME280;41136;51.478;-2.610;2023-05-24T06:52:21;101859.83;;;13.40;89.10
55277;BME280;41136;51.478;-2.610;2023-05-24T06:54:48;101862.37;;;13.01;90.80
55277;BME280;41136;51.478;-2.610;2023-05-24T06:57:12;101862.92;;;13.10;92.77
55277;BME280;41136;51.478;-2.610;2023-05-24T06:59:38;101861.36;;;13.44;90.20
55277;BME280;41136;51.478;-2.610;2023-05-24T07:02:04;101861.06;;;13.05;91.37
55277;BME280;41136;51.478;-2.610;2023-05-24T07:04:29;101864.18;;;13.22;91.64
55277;BME280;41136;51.478;-2.610;2023-05-24T07:06:55;101866.09;;;13.72;89.49
55277;BME280;41136;51.478;-2.610;2023-05-24T07:09:21;101866.68;;;12.97;90.45
55277;BME280;41136;51.478;-2.610;2023-05-24T07:11:47;101866.66;;;14.75;87.99
55277;BME280;41136;51.478;-2.610;2023-05-24T07:14:12;101868.56;;;13.98;87.23
55277;BME280;41136;51.478;-2.610;2023-05-24T07:16:37;101867.11;;;13.88;89.13
55277;BME280;41136;51.478;-2.610;2023-05-24T07:19:03;101868.33;;;14.44;88.35
55277;BME280;41136;51.478;-2.610;2023-05-24T07:21:28;101869.63;;;13.98;89.60
55277;BME280;41136;51.478;-2.610;2023-05-24T07:23:53;101874.65;;;13.79;90.65
55277;BME280;41136;51.478;-2.610;2023-05-24T07:26:19;101863.04;;;14.57;90.22
55277;BME280;41136;51.478;-2.610;2023-05-24T07:28:44;101860.88;;;14.68;88.17
55277;BME280;41136;51.478;-2.610;2023-05-24T07:31:10;101858.93;;;13.85;90.36
55277;BME280;41136;51.478;-2.610;2023-05-24T07:33:35;101858.61;;;14.24;90.08
55277;BME280;41136;51.478;-2.610;2023-05-24T07:36:01;101862.26;;;13.66;90.44
55277;BME280;41136;51.478;-2.610;2023-05-24T07:38:26;101855.22;;;14.79;89.34
55277;BME280;41136;51.478;-2.610;2023-05-24T07:40:51;101861.81;;;14.44;89.06
55277;BME280;41136;51.478;-2.610;2023-05-24T07:43:17;101867.50;;;14.14;89.32
55277;BME280;41136;51.478;-2.610;2023-05-24T07:45:42;101865.32;;;15.37;86.15
55277;BME280;41136;51.478;-2.610;2023-05-24T07:48:07;101865.80;;;14.73;87.80
55277;BME280;41136;51.478;-2.610;2023-05-24T07:50:33;101871.31;;;14.94;88.16
55277;BME280;41136;51.478;-2.610;2023-05-24T07:52:59;101869.78;;;14.98;86.81
55277;BME280;41136;51.478;-2.610;2023-05-24T07:55:24;101873.47;;;14.28;87.80
55277;BME280;41136;51.478;-2.610;2023-05-24T07:57:49;101872.10;;;13.65;90.17
55277;BME280;41136;51.478;-2.610;2023-05-24T08:00:16;101868.16;;;15.04;87.04
55277;BME280;41136;51.478;-2.610;2023-05-24T08:02:40;101867.91;;;14.16;90.20
55277;BME280;41136;51.478;-2.610;2023-05-24T08:05:06;101869.06;;;14.48;91.55
55277;BME280;41136;51.478;-2.610;2023-05-24T08:07:30;101870.66;;;14.56;90.73
55277;BME280;41136;51.478;-2.610;2023-05-24T08:09:56;101872.38;;;14.87;87.90
55277;BME280;41136;51.478;-2.610;2023-05-24T08:12:23;101876.60;;;15.56;87.67
55277;BME280;41136;51.478;-2.610;2023-05-24T08:14:47;101878.70;;;14.70;87.24
55277;BME280;41136;51.478;-2.610;2023-05-24T08:17:13;101871.75;;;16.12;84.28
55277;BME280;41136;51.478;-2.610;2023-05-24T08:19:39;101871.34;;;15.66;84.51
55277;BME280;41136;51.478;-2.610;2023-05-24T08:22:04;101871.03;;;15.56;83.78
55277;BME280;41136;51.478;-2.610;2023-05-24T08:24:30;101868.38;;;14.71;85.09
55277;BME280;41136;51.478;-2.610;2023-05-24T08:26:55;101872.82;;;13.93;90.70
55277;BME280;41136;51.478;-2.610;2023-05-24T08:29:21;101875.11;;;14.49;92.92
55277;BME280;41136;51.478;-2.610;2023-05-24T08:31:46;101878.31;;;14.79;91.98
55277;BME280;41136;51.478;-2.610;2023-05-24T08:34:11;101871.65;;;16.09;87.02
55277;BME280;41136;51.478;-2.610;2023-05-24T08:36:37;101873.91;;;16.18;83.66
55277;BME280;41136;51.478;-2.610;2023-05-24T08:39:02;101875.24;;;16.17;79.60
55277;BME280;41136;51.478;-2.610;2023-05-24T08:41:27;101874.30;;;15.74;81.59
55277;BME280;41136;51.478;-2.610;2023-05-24T08:43:53;101880.93;;;14.63;87.33
55277;BME280;41136;51.478;-2.610;2023-05-24T08:46:18;101877.62;;;15.46;86.15
55277;BME280;41136;51.478;-2.610;2023-05-24T08:48:44;101871.30;;;16.05;83.03
55277;BME280;41136;51.478;-2.610;2023-05-24T08:51:09;101869.82;;;15.96;82.63
55277;BME280;41136;51.478;-2.610;2023-05-24T08:53:35;101866.66;;;15.76;83.31
55277;BME280;41136;51.478;-2.610;2023-05-24T08:55:59;101861.94;;;15.33;86.40
55277;BME280;41136;51.478;-2.610;2023-05-24T08:58:25;101858.63;;;15.22;86.94
55277;BME280;41136;51.478;-2.610;2023-05-24T09:00:51;101861.35;;;14.98;86.39
55277;BME280;41136;51.478;-2.610;2023-05-24T09:03:16;101854.39;;;15.28;87.55
55277;BME280;41136;51.478;-2.610;2023-05-24T09:05:41;101845.60;;;15.77;83.08
55277;BME280;41136;51.478;-2.610;2023-05-24T09:08:07;101843.41;;;16.07;82.61
55277;BME280;41136;51.478;-2.610;2023-05-24T09:10:32;101846.03;;;16.64;80.72
55277;BME280;41136;51.478;-2.610;2023-05-24T09:12:57;101843.94;;;15.74;82.11
55277;BME280;41136;51.478;-2.610;2023-05-24T09:15:22;101845.49;;;15.85;80.47
55277;BME280;41136;51.478;-2.610;2023-05-24T09:17:48;101843.55;;;17.51;80.22
55277;BME280;41136;51.478;-2.610;2023-05-24T09:20:13;101838.76;;;18.81;75.17
55277;BME280;41136;51.478;-2.610;2023-05-24T09:22:41;101848.26;;;17.45;74.06
55277;BME280;41136;51.478;-2.610;2023-05-24T09:25:05;101855.87;;;16.50;78.50
55277;BME280;41136;51.478;-2.610;2023-05-24T09:27:31;101849.10;;;16.12;80.41
55277;BME280;41136;51.478;-2.610;2023-05-24T09:29:54;101844.64;;;15.87;80.32
55277;BME280;41136;51.478;-2.610;2023-05-24T09:32:21;101844.77;;;16.98;79.69
55277;BME280;41136;51.478;-2.610;2023-05-24T09:34:45;101845.95;;;16.77;78.32
55277;BME280;41136;51.478;-2.610;2023-05-24T09:37:11;101844.65;;;16.43;81.52
55277;BME280;41136;51.478;-2.610;2023-05-24T09:39:36;101843.13;;;16.87;79.29
55277;BME280;41136;51.478;-2.610;2023-05-24T09:42:02;101837.26;;;16.86;79.26
55277;BME280;41136;51.478;-2.610;2023-05-24T09:44:26;101831.80;;;17.37;74.89
55277;BME280;41136;51.478;-2.610;2023-05-24T09:46:52;101829.32;;;17.74;76.73
55277;BME280;41136;51.478;-2.610;2023-05-24T09:49:20;101835.88;;;16.49;78.56
55277;BME280;41136;51.478;-2.610;2023-05-24T09:51:42;101829.22;;;17.17;76.82
55277;BME280;41136;51.478;-2.610;2023-05-24T09:54:08;101821.15;;;18.08;74.19
55277;BME280;41136;51.478;-2.610;2023-05-24T09:56:33;101823.05;;;17.61;73.56
55277;BME280;41136;51.478;-2.610;2023-05-24T09:59:05;101825.63;;;16.77;75.53
55277;BME280;41136;51.478;-2.610;2023-05-24T10:01:24;101822.34;;;17.33;76.83
55277;BME280;41136;51.478;-2.610;2023-05-24T10:03:53;101823.48;;;18.42;72.00
55277;BME280;41136;51.478;-2.610;2023-05-24T10:06:15;101827.58;;;17.17;72.50
55277;BME280;41136;51.478;-2.610;2023-05-24T10:08:40;101832.57;;;17.39;72.09
55277;BME280;41136;51.478;-2.610;2023-05-24T10:11:05;101821.36;;;16.21;77.68
55277;BME280;41136;51.478;-2.610;2023-05-24T10:13:31;101822.22;;;15.94;81.01
55277;BME280;41136;51.478;-2.610;2023-05-24T10:15:56;101821.96;;;16.31;79.22
55277;BME280;41136;51.478;-2.610;2023-05-24T10:18:22;101812.66;;;16.11;79.51
55277;BME280;41136;51.478;-2.610;2023-05-24T10:20:47;101816.16;;;16.38;77.78
55277;BME280;41136;51.478;-2.610;2023-05-24T10:23:17;101812.86;;;16.15;80.55
55277;BME280;41136;51.478;-2.610;2023-05-24T10:25:43;101812.89;;;16.13;83.50
55277;BME280;41136;51.478;-2.610;2023-05-24T10:28:06;101806.55;;;16.83;78.89
55277;BME280;41136;51.478;-2.610;2023-05-24T10:30:32;101796.01;;;18.62;74.38
55277;BME280;41136;51.478;-2.610;2023-05-24T10:32:54;101800.08;;;17.04;74.72
55277;BME280;41136;51.478;-2.610;2023-05-24T10:35:19;101797.94;;;16.53;75.48
55277;BME280;41136;51.478;-2.610;2023-05-24T10:37:45;101799.75;;;17.44;74.32
55277;BME280;41136;51.478;-2.610;2023-05-24T10:40:15;101796.14;;;17.14;73.72
55277;BME280;41136;51.478;-2.610;2023-05-24T10:42:35;101798.58;;;17.18;71.06
55277;BME280;41136;51.478;-2.610;2023-05-24T10:47:25;101789.81;;;17.16;69.88
55277;BME280;41136;51.478;-2.610;2023-05-24T10:49:53;101789.07;;;17.01;72.90
55277;BME280;41136;51.478;-2.610;2023-05-24T10:52:16;101794.93;;;17.03;72.00
55277;BME280;41136;51.478;-2.610;2023-05-24T10:57:07;101789.83;;;18.49;70.56
55277;BME280;41136;51.478;-2.610;2023-05-24T10:59:34;101799.61;;;17.07;74.34
55277;BME280;41136;51.478;-2.610;2023-05-24T11:01:58;101801.70;;;17.43;73.04
55277;BME280;41136;51.478;-2.610;2023-05-24T11:04:23;101805.75;;;17.53;73.54
55277;BME280;41136;51.478;-2.610;2023-05-24T11:06:53;101807.74;;;17.11;75.14
55277;BME280;41136;51.478;-2.610;2023-05-24T11:09:14;101808.95;;;17.15;74.15
55277;BME280;41136;51.478;-2.610;2023-05-24T11:11:43;101805.95;;;18.33;70.01
55277;BME280;41136;51.478;-2.610;2023-05-24T11:14:05;101805.11;;;18.81;68.37
55277;BME280;41136;51.478;-2.610;2023-05-24T11:16:33;101808.86;;;17.73;69.20
55277;BME280;41136;51.478;-2.610;2023-05-24T11:18:56;101805.88;;;17.31;69.47
55277;BME280;41136;51.478;-2.610;2023-05-24T11:21:21;101799.32;;;18.57;66.17
55277;BME280;41136;51.478;-2.610;2023-05-24T11:23:47;101794.60;;;17.44;66.01
55277;BME280;41136;51.478;-2.610;2023-05-24T11:26:12;101798.62;;;16.74;70.17
55277;BME280;41136;51.478;-2.610;2023-05-24T11:28:38;101797.77;;;16.43;69.59
55277;BME280;41136;51.478;-2.610;2023-05-24T11:31:07;101790.91;;;16.80;68.42
55277;BME280;41136;51.478;-2.610;2023-05-24T11:33:29;101795.90;;;16.53;70.82
55277;BME280;41136;51.478;-2.610;2023-05-24T11:35:54;101791.33;;;16.06;70.69
55277;BME280;41136;51.478;-2.610;2023-05-24T11:38:20;101787.72;;;16.51;69.26
55277;BME280;41136;51.478;-2.610;2023-05-24T11:40:46;101780.58;;;18.05;65.59
55277;BME280;41136;51.478;-2.610;2023-05-24T11:43:12;101785.43;;;17.37;65.55
55277;BME280;41136;51.478;-2.610;2023-05-24T11:45:36;101786.18;;;17.15;67.34
55277;BME280;41136;51.478;-2.610;2023-05-24T11:48:03;101787.96;;;16.84;67.66
55277;BME280;41136;51.478;-2.610;2023-05-24T11:50:26;101785.68;;;17.38;67.38
55277;BME280;41136;51.478;-2.610;2023-05-24T11:52:51;101785.47;;;17.42;69.59
55277;BME280;41136;51.478;-2.610;2023-05-24T11:55:22;101784.22;;;17.19;70.64
55277;BME280;41136;51.478;-2.610;2023-05-24T11:57:44;101784.27;;;17.21;71.06
55277;BME280;41136;51.478;-2.610;2023-05-24T12:00:08;101784.19;;;17.11;67.83
55277;BME280;41136;51.478;-2.610;2023-05-24T12:02:32;101785.89;;;17.62;67.46
55277;BME280;41136;51.478;-2.610;2023-05-24T12:05:06;101785.91;;;17.24;67.35
55277;BME280;41136;51.478;-2.610;2023-05-24T12:07:23;101784.39;;;17.86;67.25
55277;BME280;41136;51.478;-2.610;2023-05-24T12:09:49;101786.97;;;17.48;65.89
55277;BME280;41136;51.478;-2.610;2023-05-24T12:12:13;101791.30;;;16.85;67.46
55277;BME280;41136;51.478;-2.610;2023-05-24T12:14:39;101787.87;;;16.08;68.57
55277;BME280;41136;51.478;-2.610;2023-05-24T12:17:05;101789.06;;;16.21;66.97
55277;BME280;41136;51.478;-2.610;2023-05-24T12:19:31;101781.63;;;17.14;66.79
55277;BME280;41136;51.478;-2.610;2023-05-24T12:21:56;101773.27;;;17.78;62.67
55277;BME280;41136;51.478;-2.610;2023-05-24T12:24:22;101777.92;;;17.67;64.73
55277;BME280;41136;51.478;-2.610;2023-05-24T12:26:47;101778.97;;;17.42;62.81
55277;BME280;41136;51.478;-2.610;2023-05-24T12:29:13;101774.37;;;17.14;61.01
55277;BME280;41136;51.478;-2.610;2023-05-24T12:31:40;101778.53;;;17.15;64.71
55277;BME280;41136;51.478;-2.610;2023-05-24T12:34:04;101773.10;;;17.07;65.63
55277;BME280;41136;51.478;-2.610;2023-05-24T12:36:29;101776.55;;;16.25;67.31
55277;BME280;41136;51.478;-2.610;2023-05-24T12:38:56;101770.42;;;16.93;65.74
55277;BME280;41136;51.478;-2.610;2023-05-24T12:41:22;101760.44;;;17.86;62.52